createdAt,value
2018-01-08T00:02:02.736Z,29.30
2018-01-08T00:04:30.320Z,26.40
2018-01-08T00:06:57.913Z,29.43
2018-01-08T00:09:25.489Z,27.20
2018-01-08T00:11:53.106Z,31.93
2018-01-08T00:14:20.673Z,29.27
2018-01-08T00:16:49.534Z,29.67
2018-01-08T00:19:17.093Z,32.93
2018-01-08T00:21:44.889Z,30.30
2018-01-08T00:24:13.250Z,35.90
2018-01-08T00:26:40.981Z,39.30
2018-01-08T00:29:08.849Z,27.07
2018-01-08T00:31:36.649Z,32.23
2018-01-08T00:34:04.210Z,27.47
2018-01-08T00:36:31.851Z,26.87
2018-01-08T00:38:59.413Z,34.73
2018-01-08T00:41:27.016Z,27.57
2018-01-08T00:43:55.320Z,37.93
2018-01-08T00:46:23.784Z,30.60
2018-01-08T00:48:52.271Z,31.00
2018-01-08T00:51:20.113Z,30.50
2018-01-08T00:53:48.413Z,26.07
2018-01-08T00:56:15.962Z,38.80
2018-01-08T00:58:43.578Z,31.87
2018-01-08T01:01:11.151Z,35.97
2018-01-08T01:03:38.726Z,32.70
2018-01-08T01:06:06.313Z,32.20
2018-01-08T01:08:33.925Z,32.77
2018-01-08T01:11:01.536Z,28.90
2018-01-08T01:13:29.453Z,29.10
2018-01-08T01:15:57.044Z,27.13
2018-01-08T01:18:24.584Z,28.80
2018-01-08T01:20:52.937Z,21.30
2018-01-08T01:23:20.469Z,25.50
2018-01-08T01:25:48.148Z,33.30
2018-01-08T01:28:15.693Z,32.93
2018-01-08T01:30:43.666Z,25.83
2018-01-08T01:33:11.215Z,28.87
2018-01-08T01:35:38.846Z,33.43
2018-01-08T01:38:07.187Z,31.20
2018-01-08T01:40:34.749Z,23.43
2018-01-08T01:43:02.340Z,31.60
2018-01-08T01:45:29.877Z,35.50
2018-01-08T01:47:57.928Z,25.73
2018-01-08T01:50:25.458Z,29.30
2018-01-08T01:52:53.265Z,26.37
2018-01-08T01:55:21.640Z,30.00
2018-01-08T01:57:49.206Z,23.27
2018-01-08T02:00:16.864Z,31.37
2018-01-08T02:02:44.430Z,29.03
2018-01-08T02:05:12.014Z,25.00
2018-01-08T02:07:40.325Z,30.70
2018-01-08T02:10:07.855Z,25.50
2018-01-08T02:12:35.442Z,23.27
2018-01-08T02:15:02.982Z,22.80
2018-01-08T02:17:30.597Z,24.80
2018-01-08T02:19:58.985Z,25.70
2018-01-08T02:22:27.025Z,21.87
2018-01-08T02:24:54.573Z,29.53
2018-01-08T02:27:22.127Z,32.17
2018-01-08T02:29:49.708Z,15.43
2018-01-08T02:32:17.289Z,26.13
2018-01-08T02:34:44.868Z,37.50
2018-01-08T02:37:12.413Z,23.87
2018-01-08T02:39:40.038Z,21.10
2018-01-08T02:42:07.603Z,27.97
2018-01-08T02:44:35.570Z,36.97
2018-01-08T02:47:03.106Z,28.50
2018-01-08T02:49:30.742Z,33.33
2018-01-08T02:51:59.069Z,32.80
2018-01-08T02:54:26.620Z,30.03
2018-01-08T02:56:54.205Z,37.13
2018-01-08T02:59:21.765Z,32.67
2018-01-08T03:01:49.733Z,26.83
2018-01-08T03:04:17.326Z,26.40
2018-01-08T03:06:45.809Z,39.63
2018-01-08T03:09:13.433Z,35.60
2018-01-08T03:11:40.970Z,29.50
2018-01-08T03:14:08.599Z,31.30
2018-01-08T03:16:36.146Z,37.90
2018-01-08T03:19:03.730Z,34.73
2018-01-08T03:21:31.277Z,28.80
2018-01-08T03:23:59.243Z,28.67
2018-01-08T03:26:27.550Z,27.83
2018-01-08T03:28:55.930Z,35.20
2018-01-08T03:31:23.515Z,33.27
2018-01-08T03:33:51.072Z,34.17
2018-01-08T03:36:18.702Z,20.10
2018-01-08T03:38:46.271Z,28.23
2018-01-08T03:41:13.845Z,27.83
2018-01-08T03:43:41.414Z,28.40
2018-01-08T03:46:09.374Z,21.90
2018-01-08T03:48:36.914Z,22.60
2018-01-08T03:51:04.497Z,20.80
2018-01-08T03:53:32.101Z,26.67
2018-01-08T03:56:00.412Z,26.23
2018-01-08T03:58:28.023Z,31.17
2018-01-08T04:00:55.581Z,28.23
2018-01-08T04:03:23.547Z,29.67
2018-01-08T04:05:51.117Z,29.07
2018-01-08T04:08:18.685Z,24.97
2018-01-08T04:10:46.313Z,30.80
2018-01-08T04:13:14.017Z,29.93
2018-01-08T04:15:41.636Z,27.33
2018-01-08T04:18:09.204Z,30.40
2018-01-08T04:20:37.287Z,32.60
2018-01-08T04:23:05.725Z,26.47
2018-01-08T04:25:33.312Z,25.93
2018-01-08T04:28:00.934Z,29.70
2018-01-08T04:30:28.485Z,18.80
2018-01-08T04:32:56.093Z,27.90
2018-01-08T04:35:23.669Z,28.90
2018-01-08T04:37:52.034Z,25.17
2018-01-08T04:40:19.632Z,23.20
2018-01-08T04:42:47.873Z,30.30
2018-01-08T04:45:15.532Z,33.37
2018-01-08T04:47:43.229Z,23.67
2018-01-08T04:50:10.796Z,23.33
2018-01-08T04:52:38.353Z,27.10
2018-01-08T04:55:06.220Z,30.63
2018-01-08T04:57:33.778Z,28.57
2018-01-08T05:00:01.326Z,29.00
2018-01-08T05:02:28.905Z,31.27
2018-01-08T05:04:56.479Z,30.97
2018-01-08T05:07:24.076Z,29.60
2018-01-08T05:09:52.584Z,25.77
2018-01-08T05:12:21.247Z,27.03
2018-01-08T05:14:48.798Z,28.20
2018-01-08T05:17:16.360Z,38.47
2018-01-08T05:19:44.201Z,32.60
2018-01-08T05:22:11.913Z,32.43
2018-01-08T05:24:40.262Z,31.27
2018-01-08T05:27:09.346Z,26.70
2018-01-08T05:29:37.303Z,34.50
2018-01-08T05:32:04.863Z,36.13
2018-01-08T05:34:32.413Z,29.77
2018-01-08T05:37:00.030Z,29.53
2018-01-08T05:39:27.578Z,27.57
2018-01-08T05:41:55.414Z,24.40
2018-01-08T05:44:22.952Z,25.90
2018-01-08T05:46:50.490Z,15.03
2018-01-08T05:49:18.181Z,25.57
2018-01-08T05:51:45.723Z,29.00
2018-01-08T05:54:13.713Z,32.37
2018-01-08T05:56:41.253Z,31.27
2018-01-08T05:59:08.791Z,24.93
2018-01-08T06:01:36.904Z,28.43
2018-01-08T06:04:04.454Z,29.97
2018-01-08T06:06:32.013Z,30.47
2018-01-08T06:08:59.576Z,24.60
2018-01-08T06:11:27.149Z,26.83
2018-01-08T06:13:54.720Z,26.37
2018-01-08T06:16:22.261Z,33.03
2018-01-08T06:18:50.322Z,27.90
2018-01-08T06:21:17.857Z,24.67
2018-01-08T06:23:45.428Z,28.40
2018-01-08T06:26:13.014Z,26.70
2018-01-08T06:28:40.813Z,26.60
2018-01-08T06:31:08.402Z,27.50
2018-01-08T06:33:35.946Z,25.33
2018-01-08T06:36:04.252Z,26.40
2018-01-08T06:38:31.834Z,26.67
2018-01-08T06:40:59.370Z,27.13
2018-01-08T06:43:27.361Z,25.07
2018-01-08T06:45:54.905Z,19.07
2018-01-08T06:48:22.446Z,22.20
2018-01-08T06:50:50.044Z,23.33
2018-01-08T06:53:17.586Z,23.57
2018-01-08T06:55:45.175Z,29.57
2018-01-08T06:58:12.710Z,24.50
2018-01-08T07:00:40.774Z,22.00
2018-01-08T07:03:08.322Z,20.10
2018-01-08T07:05:35.961Z,18.13
2018-01-08T07:08:04.311Z,24.97
2018-01-08T07:10:31.857Z,17.63
2018-01-08T07:12:59.467Z,19.60
2018-01-08T07:15:27.035Z,25.73
2018-01-08T07:17:54.770Z,25.90
2018-01-08T07:20:22.314Z,13.50
2018-01-08T07:22:49.858Z,14.77
2018-01-08T07:25:17.434Z,22.00
2018-01-08T07:27:44.990Z,12.77
2018-01-08T07:30:14.070Z,20.83
2018-01-08T07:32:41.618Z,21.73
2018-01-08T07:35:09.205Z,21.43
2018-01-08T07:37:36.762Z,19.47
2018-01-08T07:40:04.300Z,15.00
2018-01-08T07:42:31.885Z,27.03
2018-01-08T07:44:59.438Z,28.13
2018-01-08T07:47:27.239Z,21.80
2018-01-08T07:49:55.550Z,19.23
2018-01-08T07:52:23.128Z,19.87
2018-01-08T07:54:50.694Z,22.50
2018-01-08T07:57:18.263Z,22.13
2018-01-08T07:59:46.030Z,18.20
2018-01-08T08:02:13.565Z,19.03
2018-01-08T08:04:41.213Z,23.90
2018-01-08T08:07:08.755Z,17.33
2018-01-08T08:09:36.349Z,26.90
2018-01-08T08:12:04.150Z,18.60
2018-01-08T08:14:32.581Z,24.90
2018-01-08T08:17:00.125Z,27.03
2018-01-08T08:19:27.664Z,26.43
2018-01-08T08:21:55.251Z,28.13
2018-01-08T08:24:22.789Z,25.53
2018-01-08T08:26:50.370Z,23.93
2018-01-08T08:29:17.909Z,33.93
2018-01-08T08:31:45.498Z,27.40
2018-01-08T08:34:13.038Z,31.60
2018-01-08T08:36:41.351Z,28.80
2018-01-08T08:39:09.075Z,26.67
2018-01-08T08:41:36.632Z,40.60
2018-01-08T08:44:04.212Z,24.20
2018-01-08T08:46:31.764Z,37.20
2018-01-08T08:48:59.346Z,33.03
2018-01-08T08:51:26.918Z,30.53
2018-01-08T08:53:54.522Z,32.67
2018-01-08T08:56:22.070Z,31.70
2018-01-08T08:58:50.382Z,28.70
2018-01-08T09:01:17.978Z,30.30
2018-01-08T09:03:46.282Z,31.77
2018-01-08T09:06:14.640Z,39.00
2018-01-08T09:08:42.189Z,32.87
2018-01-08T09:11:09.784Z,29.93
2018-01-08T09:13:37.380Z,29.13
2018-01-08T09:16:04.898Z,31.47
2018-01-08T09:18:32.478Z,30.93
2018-01-08T09:21:00.028Z,34.97
2018-01-08T09:23:27.613Z,37.93
2018-01-08T09:25:55.242Z,37.43
2018-01-08T09:28:22.928Z,35.80
2018-01-08T09:30:50.472Z,30.17
2018-01-08T09:33:18.097Z,30.97
2018-01-08T09:35:45.643Z,24.93
2018-01-08T09:38:13.190Z,33.80
2018-01-08T09:40:41.529Z,31.47
2018-01-08T09:43:09.070Z,39.73
2018-01-08T09:45:37.697Z,38.33
2018-01-08T09:48:05.242Z,31.43
2018-01-08T09:50:32.806Z,40.23
2018-01-08T09:53:00.389Z,48.00
2018-01-08T09:55:27.935Z,33.20
2018-01-08T09:57:55.523Z,30.83
2018-01-08T10:00:24.575Z,29.57
2018-01-08T10:03:03.793Z,35.00
2018-01-08T10:05:43.172Z,34.23
2018-01-08T10:08:22.426Z,35.43
2018-01-08T10:11:01.771Z,34.53
2018-01-08T10:13:41.029Z,36.30
2018-01-08T10:16:20.327Z,38.10
2018-01-08T10:18:48.705Z,32.90
2018-01-08T10:21:16.258Z,34.23
2018-01-08T10:23:43.841Z,23.00
2018-01-08T10:26:11.392Z,31.47
2018-01-08T10:28:38.938Z,29.83
2018-01-08T10:31:06.546Z,32.27
2018-01-08T10:33:34.096Z,19.60
2018-01-08T10:36:01.710Z,30.87
2018-01-08T10:38:29.253Z,29.63
2018-01-08T10:40:56.361Z,34.33
2018-01-08T10:43:29.465Z,32.27
2018-01-08T10:46:02.955Z,27.10
2018-01-08T10:48:36.837Z,27.33
2018-01-08T10:51:09.956Z,30.57
2018-01-08T10:53:38.246Z,25.50
2018-01-08T10:56:06.181Z,28.47
2018-01-08T10:58:33.724Z,26.27
2018-01-08T11:01:07.298Z,32.67
2018-01-08T11:03:40.412Z,32.80
2018-01-08T11:06:09.993Z,35.87
2018-01-08T11:08:37.536Z,37.83
2018-01-08T11:11:05.083Z,31.83
2018-01-08T11:13:32.802Z,35.33
2018-01-08T11:16:00.363Z,32.00
2018-01-08T11:18:27.973Z,36.30
2018-01-08T11:20:55.692Z,35.80
2018-01-08T11:23:23.230Z,36.47
2018-01-08T11:25:50.832Z,29.77
2018-01-08T11:28:18.385Z,35.80
2018-01-08T11:30:46.750Z,31.33
2018-01-08T11:33:14.293Z,33.37
2018-01-08T11:35:41.883Z,41.70
2018-01-08T11:38:09.476Z,30.83
2018-01-08T11:40:37.050Z,27.17
2018-01-08T11:43:04.666Z,34.10
2018-01-08T11:45:32.441Z,31.77
2018-01-08T11:48:00.455Z,31.10
2018-01-08T11:50:28.001Z,33.47
2018-01-08T11:52:55.785Z,32.67
2018-01-08T11:55:24.278Z,30.60
2018-01-08T11:57:51.848Z,34.57
2018-01-08T12:00:19.430Z,33.13
2018-01-08T12:02:46.986Z,30.63
2018-01-08T12:05:14.673Z,38.87
2018-01-08T12:07:42.293Z,48.20
2018-01-08T12:10:09.842Z,40.73
2018-01-08T12:12:37.416Z,28.90
2018-01-08T12:15:05.164Z,30.07
2018-01-08T12:17:32.741Z,30.23
2018-01-08T12:20:00.309Z,26.63
2018-01-08T12:22:27.882Z,31.97
2018-01-08T12:24:55.472Z,32.47
2018-01-08T12:27:23.050Z,28.33
2018-01-08T12:29:51.010Z,27.37
2018-01-08T12:32:18.565Z,23.50
2018-01-08T12:34:46.131Z,28.00
2018-01-08T12:37:13.723Z,24.10
2018-01-08T12:39:41.288Z,19.33
2018-01-08T12:42:09.869Z,32.13
2018-01-08T12:44:37.423Z,31.10
2018-01-08T12:47:05.831Z,19.50
2018-01-08T12:49:33.387Z,28.50
2018-01-08T12:52:00.924Z,33.90
2018-01-08T12:54:28.653Z,30.97
2018-01-08T12:56:56.217Z,33.90
2018-01-08T12:59:23.800Z,36.73
2018-01-08T13:01:51.351Z,41.80
2018-01-08T13:04:18.955Z,36.33
2018-01-08T13:06:46.515Z,33.13
2018-01-08T13:09:14.211Z,34.67
2018-01-08T13:11:41.786Z,33.63
2018-01-08T13:14:09.350Z,37.00
2018-01-08T13:16:36.945Z,39.80
2018-01-08T13:19:04.533Z,29.23
2018-01-08T13:21:32.150Z,40.27
2018-01-08T13:23:59.721Z,40.07
2018-01-08T13:26:27.307Z,32.97
2018-01-08T13:28:54.888Z,43.50
2018-01-08T13:31:22.506Z,42.13
2018-01-08T13:33:50.118Z,36.00
2018-01-08T13:36:17.929Z,35.47
2018-01-08T13:38:46.300Z,33.40
2018-01-08T13:41:13.869Z,32.57
2018-01-08T13:43:42.398Z,29.27
2018-01-08T13:46:11.380Z,34.50
2018-01-08T13:48:39.006Z,35.10
2018-01-08T13:51:06.614Z,36.07
2018-01-08T13:53:34.194Z,31.20
2018-01-08T13:56:01.776Z,37.03
2018-01-08T13:58:30.127Z,49.40
2018-01-08T14:00:57.689Z,39.87
2018-01-08T14:03:25.278Z,38.83
2018-01-08T14:05:53.597Z,37.67
2018-01-08T14:08:21.173Z,37.13
2018-01-08T14:10:48.749Z,32.27
2018-01-08T14:13:16.291Z,37.90
2018-01-08T14:15:43.904Z,30.80
2018-01-08T14:18:11.460Z,34.80
2018-01-08T14:20:40.076Z,33.97
2018-01-08T14:23:07.621Z,46.93
2018-01-08T14:25:35.220Z,32.20
2018-01-08T14:28:02.884Z,35.23
2018-01-08T14:30:30.489Z,36.10
2018-01-08T14:32:58.131Z,33.40
2018-01-08T14:35:25.707Z,31.73
2018-01-08T14:37:54.013Z,30.80
2018-01-08T14:40:21.605Z,36.83
2018-01-08T14:42:49.194Z,28.43
2018-01-08T14:45:16.811Z,30.63
2018-01-08T14:47:44.414Z,28.00
2018-01-08T14:50:12.789Z,27.83
2018-01-08T14:52:40.354Z,30.10
2018-01-08T14:55:08.704Z,26.50
2018-01-08T14:57:36.303Z,30.77
2018-01-08T15:00:04.636Z,35.13
2018-01-08T15:02:32.284Z,28.30
2018-01-08T15:04:59.842Z,36.20
2018-01-08T15:07:27.441Z,35.93
2018-01-08T15:09:55.035Z,32.70
2018-01-08T15:12:22.907Z,40.80
2018-01-08T15:14:50.584Z,32.20
2018-01-08T15:17:18.149Z,32.13
2018-01-08T15:19:45.750Z,33.67
2018-01-08T15:22:13.957Z,28.80
2018-01-08T15:24:41.555Z,37.17
2018-01-08T15:27:09.365Z,39.93
2018-01-08T15:29:37.672Z,36.80
2018-01-08T15:32:05.638Z,26.90
2018-01-08T15:34:33.210Z,33.47
2018-01-08T15:37:01.748Z,30.60
2018-01-08T15:39:29.331Z,34.93
2018-01-08T15:41:56.934Z,38.30
2018-01-08T15:44:24.500Z,29.93
2018-01-08T15:46:52.126Z,35.17
2018-01-08T15:49:19.698Z,36.43
2018-01-08T15:51:47.249Z,37.80
2018-01-08T15:54:14.944Z,41.30
2018-01-08T15:56:43.291Z,34.53
2018-01-08T15:59:10.912Z,42.97
2018-01-08T16:01:38.470Z,36.53
2018-01-08T16:04:06.832Z,31.63
2018-01-08T16:06:34.431Z,40.63
2018-01-08T16:09:02.021Z,40.70
2018-01-08T16:11:30.533Z,45.30
2018-01-08T16:13:58.861Z,40.13
2018-01-08T16:16:26.445Z,42.70
2018-01-08T16:18:54.034Z,42.23
2018-01-08T16:21:21.602Z,41.63
2018-01-08T16:23:49.262Z,39.13
2018-01-08T16:26:18.104Z,37.50
2018-01-08T16:28:45.741Z,37.10
2018-01-08T16:31:13.304Z,38.00
2018-01-08T16:33:40.884Z,34.33
2018-01-08T16:36:08.440Z,40.57
2018-01-08T16:38:36.037Z,31.23
2018-01-08T16:41:03.607Z,28.33
2018-01-08T16:43:31.164Z,35.40
2018-01-08T16:45:58.969Z,45.23
2018-01-08T16:48:26.576Z,28.37
2018-01-08T16:50:54.193Z,39.20
2018-01-08T16:53:22.978Z,36.37
2018-01-08T16:55:50.594Z,38.90
2018-01-08T16:58:18.133Z,42.70
2018-01-08T17:00:45.695Z,41.67
2018-01-08T17:03:13.285Z,45.50
2018-01-08T17:05:41.613Z,40.63
2018-01-08T17:08:09.218Z,41.57
2018-01-08T17:10:36.758Z,39.00
2018-01-08T17:13:04.343Z,39.50
2018-01-08T17:15:31.911Z,49.50
2018-01-08T17:18:00.257Z,50.37
2018-01-08T17:20:28.588Z,40.50
2018-01-08T17:22:56.162Z,36.50
2018-01-08T17:25:23.743Z,36.00
2018-01-08T17:27:51.287Z,43.50
2018-01-08T17:30:18.890Z,42.50
2018-01-08T17:32:47.226Z,50.57
2018-01-08T17:35:14.856Z,53.07
2018-01-08T17:37:42.440Z,47.87
2018-01-08T17:40:10.031Z,53.43
2018-01-08T17:42:37.631Z,50.20
2018-01-08T17:45:05.233Z,40.40
2018-01-08T17:47:33.116Z,44.70
2018-01-08T17:50:00.698Z,44.90
2018-01-08T17:52:28.273Z,46.50
2018-01-08T17:54:57.250Z,40.37
2018-01-08T17:57:24.832Z,47.73
2018-01-08T17:59:52.480Z,48.13
2018-01-08T18:02:21.412Z,46.73
2018-01-08T18:04:49.245Z,52.27
2018-01-08T18:07:16.893Z,41.17
2018-01-08T18:09:45.196Z,45.33
2018-01-08T18:12:12.805Z,50.10
2018-01-08T18:14:40.738Z,41.50
2018-01-08T18:17:08.336Z,44.00
2018-01-08T18:19:36.988Z,48.43
2018-01-08T18:22:04.589Z,43.60
2018-01-08T18:24:32.182Z,43.70
2018-01-08T18:27:00.045Z,48.90
2018-01-08T18:29:27.614Z,47.23
2018-01-08T18:31:55.166Z,44.53
2018-01-08T18:34:22.866Z,40.80
2018-01-08T18:36:50.442Z,44.13
2018-01-08T18:39:18.516Z,45.50
2018-01-08T18:41:46.085Z,38.97
2018-01-08T18:44:13.649Z,41.83
2018-01-08T18:46:41.244Z,49.00
2018-01-08T18:49:08.829Z,49.57
2018-01-08T18:51:36.434Z,45.57
2018-01-08T18:54:04.748Z,50.33
2018-01-08T18:56:32.353Z,43.87
2018-01-08T18:58:59.898Z,45.27
2018-01-08T19:01:27.743Z,54.17
2018-01-08T19:03:55.328Z,45.83
2018-01-08T19:06:22.955Z,44.33
2018-01-08T19:08:50.713Z,44.57
2018-01-08T19:11:18.346Z,45.43
2018-01-08T19:13:46.722Z,52.93
2018-01-08T19:16:14.278Z,40.37
2018-01-08T19:18:41.968Z,40.03
2018-01-08T19:21:09.660Z,48.87
2018-01-08T19:23:37.230Z,43.30
2018-01-08T19:26:04.877Z,42.17
2018-01-08T19:28:33.206Z,47.20
2018-01-08T19:31:01.732Z,54.70
2018-01-08T19:33:29.311Z,42.20
2018-01-08T19:35:57.392Z,47.80
2018-01-08T19:38:25.081Z,48.07
2018-01-08T19:40:53.403Z,48.40
2018-01-08T19:43:20.996Z,44.07
2018-01-08T19:45:48.556Z,52.60
2018-01-08T19:48:16.166Z,47.50
2018-01-08T19:50:43.714Z,50.20
2018-01-08T19:53:11.335Z,43.33
2018-01-08T19:55:38.881Z,43.07
2018-01-08T19:58:07.054Z,46.43
2018-01-08T20:00:34.676Z,47.13
2018-01-08T20:03:02.252Z,48.60
2018-01-08T20:05:29.867Z,53.87
2018-01-08T20:07:57.444Z,50.07
2018-01-08T20:10:25.025Z,45.13
2018-01-08T20:12:52.675Z,40.67
2018-01-08T20:15:20.310Z,50.10
2018-01-08T20:17:47.877Z,42.70
2018-01-08T20:20:15.465Z,54.30
2018-01-08T20:22:43.054Z,45.73
2018-01-08T20:25:10.621Z,52.30
2018-01-08T20:27:38.233Z,42.90
2018-01-08T20:30:05.876Z,50.03
2018-01-08T20:32:34.255Z,40.37
2018-01-08T20:35:01.806Z,42.17
2018-01-08T20:37:29.371Z,38.73
2018-01-08T20:39:57.023Z,40.23
2018-01-08T20:42:24.583Z,41.50
2018-01-08T20:44:52.179Z,39.63
2018-01-08T20:47:19.721Z,37.30
2018-01-08T20:49:48.086Z,48.13
2018-01-08T20:52:15.663Z,38.77
2018-01-08T20:54:44.205Z,35.93
2018-01-08T20:57:11.769Z,40.63
2018-01-08T20:59:40.092Z,38.93
2018-01-08T21:02:07.699Z,46.50
2018-01-08T21:04:35.268Z,42.23
2018-01-08T21:07:02.911Z,39.00
2018-01-08T21:09:30.469Z,41.67
2018-01-08T21:11:58.045Z,41.60
2018-01-08T21:14:25.600Z,43.90
2018-01-08T21:16:53.203Z,51.40
2018-01-08T21:19:21.517Z,36.97
2018-01-08T21:21:49.072Z,39.67
2018-01-08T21:24:16.729Z,43.83
2018-01-08T21:26:44.287Z,33.13
2018-01-08T21:29:11.951Z,38.60
2018-01-08T21:31:39.490Z,38.67
2018-01-08T21:34:07.105Z,34.80
2018-01-08T21:36:34.658Z,40.73
2018-01-08T21:39:02.477Z,37.43
2018-01-08T21:41:30.052Z,45.13
2018-01-08T21:43:57.598Z,40.00
2018-01-08T21:46:25.190Z,33.97
2018-01-08T21:48:52.738Z,47.27
2018-01-08T21:51:20.370Z,41.80
2018-01-08T21:53:47.914Z,36.40
2018-01-08T21:56:15.594Z,40.93
2018-01-08T21:58:43.149Z,42.90
2018-01-08T22:01:11.576Z,34.67
2018-01-08T22:03:39.318Z,43.33
2018-01-08T22:06:06.871Z,46.57
2018-01-08T22:08:34.469Z,41.27
2018-01-08T22:11:02.040Z,45.83
2018-01-08T22:13:29.644Z,40.60
2018-01-08T22:15:57.189Z,43.10
2018-01-08T22:18:25.517Z,38.77
2018-01-08T22:20:53.116Z,45.87
2018-01-08T22:23:21.430Z,53.50
2018-01-08T22:25:49.013Z,39.80
2018-01-08T22:28:16.590Z,50.47
2018-01-08T22:30:44.247Z,90.40
2018-01-08T22:33:11.798Z,39.37
2018-01-08T22:35:39.423Z,59.77
2018-01-08T22:38:07.024Z,44.13
2018-01-08T22:40:34.737Z,36.27
2018-01-08T22:43:02.349Z,43.83
2018-01-08T22:45:29.901Z,47.13
2018-01-08T22:47:57.527Z,47.67
2018-01-08T22:50:25.097Z,40.43
2018-01-08T22:52:52.742Z,55.03
2018-01-08T22:55:20.565Z,36.50
2018-01-08T22:57:48.252Z,43.17
2018-01-08T23:00:16.636Z,47.83
2018-01-08T23:02:44.189Z,43.50
2018-01-08T23:05:12.497Z,41.23
2018-01-08T23:07:40.092Z,37.13
2018-01-08T23:10:07.628Z,44.47
2018-01-08T23:12:35.418Z,42.53
2018-01-08T23:15:02.952Z,49.47
2018-01-08T23:17:30.889Z,46.60
2018-01-08T23:19:58.444Z,48.40
2018-01-08T23:22:26.771Z,47.23
2018-01-08T23:24:54.614Z,40.57
2018-01-08T23:27:22.160Z,40.40
2018-01-08T23:29:49.836Z,49.23
2018-01-08T23:32:17.380Z,51.00
2018-01-08T23:34:44.967Z,31.50
2018-01-08T23:37:12.512Z,45.50
2018-01-08T23:39:40.107Z,47.10
2018-01-08T23:42:07.661Z,42.70
2018-01-08T23:44:35.268Z,43.73
2018-01-08T23:47:02.825Z,51.13
2018-01-08T23:49:30.383Z,47.40
2018-01-08T23:51:58.750Z,42.20
2018-01-08T23:54:26.301Z,41.63
2018-01-08T23:56:53.887Z,51.03
2018-01-08T23:59:21.434Z,54.47
